PWSweather.com
Personal Weather Stations
Station Observations
19121909
Balcony, LuedinghausenDE

BalconyLuedinghausenDE

Lat: 51.7674749, Lon: 7.414684299999976

Elevation: 712

Station Type: FineOffset WH1080

http://www.wetter-luedinghausen.de

Latest ConditionsUpdated 5:30:00 PM GMT+01:01 Monday, Dec 10, 2018
Currently Today's Max Today's Min Today's Average
Temperature 38.2°F3.4°C 41.8°F5.4°C 37.0°F2.8°C 39.1°F3.9°C
Dew Point 33.8°F1.0°C 36.9°F2.7°C 33.5°F0.8°C 34.8°F1.6°C
Winds 4.0 mph WNW6.4 kmh WNW 8.1 mph -13.0 kmh - - 5.1 mph 8.2 kmh
Wind Gusts 6.3 mph10.1 kmh 20.1 mph32.3 kmh - -
Humidity 84% 90% 79% 84%
Pressure 30.12 in1020.0 mb 30.12 in1020.0 mb 29.89 in1012.2 mb -
Precipitation - 0.05 in1.3 mm - -
Hour Temp Dew Point Humidity Winds Wind Gusts Pressure Precip Precip Rate Daily Precip Total
05:30 PM 38.2°F3.4°C 33.8°F1.0°C 84% 4.0 mph WNW6.4 kmh WNW 6.3 mph10.1 kmh 30.12 in1020.0 mb 0.00 in0.0 mm 0.00 in0.0 mm 0.05 in1.3 mm
05:25 PM 38.2°F3.4°C 33.8°F1.0°C 84% 4.1 mph SW6.6 kmh SW 9.5 mph15.3 kmh 30.12 in1020.0 mb 0.00 in0.0 mm 0.00 in0.0 mm 0.05 in1.3 mm
05:20 PM 38.2°F3.4°C 33.8°F1.0°C 84% 5.0 mph WSW8.0 kmh WSW 6.8 mph10.9 kmh 30.12 in1020.0 mb 0.00 in0.0 mm 0.00 in0.0 mm 0.05 in1.3 mm
05:15 PM 38.2°F3.4°C 33.8°F1.0°C 84% 5.3 mph NW8.5 kmh NW 8.6 mph13.8 kmh 30.12 in1020.0 mb 0.00 in0.0 mm 0.00 in0.0 mm 0.05 in1.3 mm
05:10 PM 38.2°F3.4°C 33.8°F1.0°C 84% 4.8 mph NW7.7 kmh NW 10.5 mph16.9 kmh 30.11 in1019.6 mb 0.00 in0.0 mm 0.00 in0.0 mm 0.05 in1.3 mm
05:05 PM 38.2°F3.4°C 33.8°F1.0°C 84% 4.6 mph W7.4 kmh W 8.8 mph14.2 kmh 30.11 in1019.6 mb 0.00 in0.0 mm 0.00 in0.0 mm 0.05 in1.3 mm
05:00 PM 38.2°F3.4°C 33.8°F1.0°C 84% 4.2 mph WSW6.8 kmh WSW 8.8 mph14.2 kmh 30.11 in1019.6 mb 0.00 in0.0 mm 0.00 in0.0 mm 0.05 in1.3 mm
04:55 PM 38.2°F3.4°C 33.8°F1.0°C 84% 3.7 mph NNW6.0 kmh NNW 6.0 mph9.7 kmh 30.11 in1019.6 mb 0.00 in0.0 mm 0.00 in0.0 mm 0.05 in1.3 mm
04:50 PM 38.2°F3.4°C 33.8°F1.0°C 84% 3.7 mph WNW6.0 kmh WNW 6.0 mph9.7 kmh 30.11 in1019.6 mb 0.00 in0.0 mm 0.00 in0.0 mm 0.05 in1.3 mm
04:45 PM 38.2°F3.4°C 33.8°F1.0°C 84% 3.8 mph NW6.1 kmh NW 4.7 mph7.6 kmh 30.11 in1019.6 mb 0.00 in0.0 mm 0.00 in0.0 mm 0.05 in1.3 mm
04:40 PM 38.3°F3.5°C 33.7°F0.9°C 83% 3.9 mph W6.3 kmh W 5.3 mph8.5 kmh 30.11 in1019.6 mb 0.00 in0.0 mm 0.00 in0.0 mm 0.05 in1.3 mm
04:35 PM 38.4°F3.6°C 33.7°F0.9°C 83% 4.0 mph WSW6.4 kmh WSW 4.7 mph7.6 kmh 30.11 in1019.6 mb 0.00 in0.0 mm 0.00 in0.0 mm 0.05 in1.3 mm
04:30 PM 38.5°F3.6°C 33.8°F1.0°C 83% 4.5 mph WNW7.2 kmh WNW 6.3 mph10.1 kmh 30.10 in1019.3 mb 0.00 in0.0 mm 0.00 in0.0 mm 0.05 in1.3 mm
04:25 PM 38.6°F3.7°C 33.9°F1.1°C 83% 4.9 mph W7.9 kmh W 7.0 mph11.3 kmh 30.10 in1019.3 mb 0.00 in0.0 mm 0.00 in0.0 mm 0.05 in1.3 mm
04:20 PM 38.6°F3.7°C 33.9°F1.1°C 83% 5.3 mph NW8.5 kmh NW 7.9 mph12.7 kmh 30.10 in1019.3 mb 0.00 in0.0 mm 0.00 in0.0 mm 0.05 in1.3 mm
04:15 PM 38.7°F3.7°C 34.0°F1.1°C 83% 5.4 mph NW8.7 kmh NW 6.5 mph10.5 kmh 30.10 in1019.3 mb 0.00 in0.0 mm 0.00 in0.0 mm 0.05 in1.3 mm
04:10 PM 38.8°F3.8°C 34.1°F1.2°C 83% 4.9 mph SSW7.9 kmh SSW 7.2 mph11.6 kmh 30.09 in1019.0 mb 0.00 in0.0 mm 0.00 in0.0 mm 0.05 in1.3 mm
04:05 PM 38.9°F3.8°C 34.2°F1.2°C 83% 4.3 mph NW6.9 kmh NW 7.7 mph12.4 kmh 30.09 in1019.0 mb 0.00 in0.0 mm 0.00 in0.0 mm 0.05 in1.3 mm
04:00 PM 39.0°F3.9°C 34.1°F1.2°C 83% 4.1 mph WNW6.6 kmh WNW 7.7 mph12.4 kmh 30.09 in1019.0 mb 0.00 in0.0 mm 0.00 in0.0 mm 0.05 in1.3 mm
03:55 PM 39.3°F4.1°C 34.3°F1.3°C 82% 4.2 mph W6.8 kmh W 7.0 mph11.3 kmh 30.09 in1019.0 mb 0.00 in0.0 mm 0.00 in0.0 mm 0.05 in1.3 mm
03:50 PM 39.5°F4.2°C 34.2°F1.2°C 81% 4.6 mph W7.4 kmh W 6.6 mph10.6 kmh 30.09 in1019.0 mb 0.00 in0.0 mm 0.00 in0.0 mm 0.05 in1.3 mm
03:45 PM 39.7°F4.3°C 34.3°F1.3°C 81% 4.7 mph W7.6 kmh W 6.8 mph10.9 kmh 30.08 in1018.6 mb 0.00 in0.0 mm 0.00 in0.0 mm 0.05 in1.3 mm
03:40 PM 40.0°F4.4°C 34.3°F1.3°C 80% 5.4 mph WSW8.7 kmh WSW 7.9 mph12.7 kmh 30.08 in1018.6 mb 0.00 in0.0 mm 0.00 in0.0 mm 0.05 in1.3 mm
03:35 PM 40.3°F4.6°C 34.6°F1.4°C 80% 7.1 mph NW11.4 kmh NW 7.9 mph12.7 kmh 30.08 in1018.6 mb 0.00 in0.0 mm 0.00 in0.0 mm 0.05 in1.3 mm
03:30 PM 40.8°F4.9°C 34.8°F1.6°C 79% 8.0 mph NW12.9 kmh NW 8.9 mph14.3 kmh 30.09 in1019.0 mb 0.00 in0.0 mm 0.00 in0.0 mm 0.05 in1.3 mm
03:25 PM 41.1°F5.1°C 35.2°F1.8°C 79% 7.0 mph W11.3 kmh W 17.8 mph28.6 kmh 30.09 in1019.0 mb 0.00 in0.0 mm 0.00 in0.0 mm 0.05 in1.3 mm
03:20 PM 41.2°F5.1°C 35.7°F2.1°C 80% 5.4 mph NW8.7 kmh NW 11.4 mph18.3 kmh 30.09 in1019.0 mb 0.00 in0.0 mm 0.00 in0.0 mm 0.05 in1.3 mm
03:15 PM 41.4°F5.2°C 35.9°F2.2°C 81% 5.1 mph W8.2 kmh W 7.7 mph12.4 kmh 30.09 in1019.0 mb 0.00 in0.0 mm 0.00 in0.0 mm 0.05 in1.3 mm
03:10 PM 41.4°F5.2°C 35.7°F2.1°C 80% 6.0 mph WNW9.7 kmh WNW 11.2 mph18.0 kmh 30.10 in1019.3 mb 0.00 in0.0 mm 0.00 in0.0 mm 0.05 in1.3 mm
03:05 PM 41.4°F5.2°C 35.9°F2.2°C 81% 6.0 mph NW9.7 kmh NW 11.2 mph18.0 kmh 30.10 in1019.3 mb 0.00 in0.0 mm 0.00 in0.0 mm 0.05 in1.3 mm
03:00 PM 41.6°F5.3°C 35.9°F2.2°C 80% 5.4 mph NNW8.7 kmh NNW 17.2 mph27.7 kmh 30.10 in1019.3 mb 0.00 in0.0 mm 0.00 in0.0 mm 0.05 in1.3 mm
02:55 PM 41.5°F5.3°C 36.2°F2.3°C 81% 5.3 mph WNW8.5 kmh WNW 8.8 mph14.2 kmh 30.10 in1019.3 mb 0.00 in0.0 mm 0.00 in0.0 mm 0.05 in1.3 mm
02:50 PM 41.3°F5.2°C 36.0°F2.2°C 81% 6.3 mph NW10.1 kmh NW 9.1 mph14.6 kmh 30.09 in1019.0 mb 0.00 in0.0 mm 0.00 in0.0 mm 0.05 in1.3 mm
02:45 PM 41.4°F5.2°C 35.9°F2.2°C 81% 6.5 mph WNW10.5 kmh WNW 8.9 mph14.3 kmh 30.09 in1019.0 mb 0.00 in0.0 mm 0.00 in0.0 mm 0.05 in1.3 mm
02:40 PM 41.4°F5.2°C 36.0°F2.2°C 81% 5.8 mph WSW9.3 kmh WSW 9.1 mph14.6 kmh 30.09 in1019.0 mb 0.00 in0.0 mm 0.00 in0.0 mm 0.05 in1.3 mm
02:35 PM 41.4°F5.2°C 36.0°F2.2°C 81% 5.9 mph SSW9.5 kmh SSW 7.5 mph12.1 kmh 30.09 in1019.0 mb 0.00 in0.0 mm 0.00 in0.0 mm 0.05 in1.3 mm
02:30 PM 41.6°F5.3°C 36.2°F2.3°C 81% 6.4 mph SW10.3 kmh SW 7.2 mph11.6 kmh 30.09 in1019.0 mb 0.00 in0.0 mm 0.00 in0.0 mm 0.05 in1.3 mm
02:25 PM 41.6°F5.3°C 36.2°F2.3°C 81% 6.3 mph SW10.1 kmh SW 12.8 mph20.6 kmh 30.09 in1019.0 mb 0.00 in0.0 mm 0.00 in0.0 mm 0.05 in1.3 mm
02:20 PM 41.6°F5.3°C 36.2°F2.3°C 81% 6.5 mph WSW10.5 kmh WSW 10.7 mph17.2 kmh 30.09 in1019.0 mb 0.00 in0.0 mm 0.00 in0.0 mm 0.05 in1.3 mm
02:15 PM 41.6°F5.3°C 36.2°F2.3°C 81% 6.8 mph SSW10.9 kmh SSW 18.2 mph29.3 kmh 30.09 in1019.0 mb 0.00 in0.0 mm 0.00 in0.0 mm 0.05 in1.3 mm
02:10 PM 41.7°F5.4°C 36.3°F2.4°C 81% 6.2 mph NW10.0 kmh NW 18.2 mph29.3 kmh 30.09 in1019.0 mb 0.00 in0.0 mm 0.00 in0.0 mm 0.05 in1.3 mm
02:05 PM 41.7°F5.4°C 36.3°F2.4°C 81% 5.9 mph NW9.5 kmh NW 18.4 mph29.6 kmh 30.09 in1019.0 mb 0.00 in0.0 mm 0.00 in0.0 mm 0.05 in1.3 mm
02:00 PM 41.8°F5.4°C 36.4°F2.4°C 81% 5.5 mph W8.9 kmh W 18.4 mph29.6 kmh 30.09 in1019.0 mb 0.00 in0.0 mm 0.00 in0.0 mm 0.05 in1.3 mm
01:55 PM 41.8°F5.4°C 36.4°F2.4°C 81% 5.6 mph SW9.0 kmh SW 8.4 mph13.5 kmh 30.09 in1019.0 mb 0.00 in0.0 mm 0.00 in0.0 mm 0.05 in1.3 mm
01:50 PM 41.8°F5.4°C 36.4°F2.4°C 81% 5.7 mph SW9.2 kmh SW 10.3 mph16.6 kmh 30.09 in1019.0 mb 0.00 in0.0 mm 0.00 in0.0 mm 0.05 in1.3 mm
01:45 PM 41.5°F5.3°C 36.2°F2.3°C 81% 5.6 mph WNW9.0 kmh WNW 11.9 mph19.2 kmh 30.09 in1019.0 mb 0.00 in0.0 mm 0.00 in0.0 mm 0.05 in1.3 mm
01:40 PM 41.4°F5.2°C 36.2°F2.3°C 81% 5.3 mph WSW8.5 kmh WSW 13.0 mph20.9 kmh 30.09 in1019.0 mb 0.00 in0.0 mm 0.00 in0.0 mm 0.05 in1.3 mm
01:35 PM 41.4°F5.2°C 36.3°F2.4°C 82% 5.3 mph S8.5 kmh S 8.9 mph14.3 kmh 30.09 in1019.0 mb 0.00 in0.0 mm 0.00 in0.0 mm 0.05 in1.3 mm
01:30 PM 41.4°F5.2°C 36.3°F2.4°C 82% 5.4 mph WSW8.7 kmh WSW 13.1 mph21.1 kmh 30.09 in1019.0 mb 0.00 in0.0 mm 0.00 in0.0 mm 0.05 in1.3 mm
01:25 PM 41.3°F5.2°C 36.5°F2.5°C 83% 5.6 mph SW9.0 kmh SW 10.9 mph17.5 kmh 30.09 in1019.0 mb 0.00 in0.0 mm 0.00 in0.0 mm 0.05 in1.3 mm
01:20 PM 41.4°F5.2°C 36.3°F2.4°C 82% 5.6 mph WNW9.0 kmh WNW 13.0 mph20.9 kmh 30.09 in1019.0 mb 0.00 in0.0 mm 0.00 in0.0 mm 0.05 in1.3 mm
01:15 PM 41.4°F5.2°C 36.6°F2.6°C 83% 4.9 mph WSW7.9 kmh WSW 13.0 mph20.9 kmh 30.09 in1019.0 mb 0.00 in0.0 mm 0.00 in0.0 mm 0.05 in1.3 mm
01:10 PM 41.4°F5.2°C 36.9°F2.7°C 84% 4.6 mph WNW7.4 kmh WNW 13.8 mph22.2 kmh 30.09 in1019.0 mb 0.00 in0.0 mm 0.00 in0.0 mm 0.05 in1.3 mm
01:05 PM 41.1°F5.1°C 36.7°F2.6°C 84% 4.4 mph NW7.1 kmh NW 5.1 mph8.2 kmh 30.09 in1019.0 mb 0.00 in0.0 mm 0.00 in0.0 mm 0.05 in1.3 mm
01:00 PM 41.0°F5.0°C 36.5°F2.5°C 84% 4.5 mph NW7.2 kmh NW 6.0 mph9.7 kmh 30.09 in1019.0 mb 0.00 in0.0 mm 0.00 in0.0 mm 0.05 in1.3 mm
12:55 PM 41.1°F5.1°C 36.6°F2.6°C 84% 4.7 mph NW7.6 kmh NW 15.0 mph24.1 kmh 30.09 in1019.0 mb 0.00 in0.0 mm 0.00 in0.0 mm 0.05 in1.3 mm
12:50 PM 41.0°F5.0°C 36.5°F2.5°C 84% 5.0 mph NW8.0 kmh NW 15.0 mph24.1 kmh 30.10 in1019.3 mb 0.00 in0.0 mm 0.00 in0.0 mm 0.05 in1.3 mm
12:45 PM 40.9°F4.9°C 36.4°F2.4°C 84% 5.5 mph NW8.9 kmh NW 7.9 mph12.7 kmh 30.10 in1019.3 mb 0.00 in0.0 mm 0.00 in0.0 mm 0.05 in1.3 mm
12:40 PM 40.7°F4.8°C 36.5°F2.5°C 85% 5.9 mph N9.5 kmh N 11.0 mph17.7 kmh 30.10 in1019.3 mb 0.00 in0.0 mm 0.00 in0.0 mm 0.05 in1.3 mm
12:35 PM 40.4°F4.7°C 36.3°F2.4°C 85% 5.9 mph WNW9.5 kmh WNW 13.0 mph20.9 kmh 30.10 in1019.3 mb 0.00 in0.0 mm 0.00 in0.0 mm 0.05 in1.3 mm
12:30 PM 40.3°F4.6°C 36.3°F2.4°C 85% 5.5 mph WNW8.9 kmh WNW 13.0 mph20.9 kmh 30.11 in1019.6 mb 0.00 in0.0 mm 0.00 in0.0 mm 0.05 in1.3 mm
12:25 PM 40.0°F4.4°C 36.0°F2.2°C 86% 5.3 mph WSW8.5 kmh WSW 8.6 mph13.8 kmh 30.11 in1019.6 mb 0.00 in0.0 mm 0.00 in0.0 mm 0.05 in1.3 mm
12:20 PM 39.9°F4.4°C 36.1°F2.3°C 86% 5.3 mph WNW8.5 kmh WNW 14.9 mph24.0 kmh 30.11 in1019.6 mb 0.00 in0.0 mm 0.00 in0.0 mm 0.05 in1.3 mm
12:15 PM 39.7°F4.3°C 35.9°F2.2°C 86% 6.6 mph W10.6 kmh W 10.0 mph16.1 kmh 30.11 in1019.6 mb 0.00 in0.0 mm 0.00 in0.0 mm 0.05 in1.3 mm
12:10 PM 39.7°F4.3°C 35.8°F2.1°C 86% 7.0 mph WSW11.3 kmh WSW 10.0 mph16.1 kmh 30.10 in1019.3 mb 0.00 in0.0 mm 0.00 in0.0 mm 0.05 in1.3 mm
12:05 PM 39.7°F4.3°C 35.8°F2.1°C 86% 7.0 mph WSW11.3 kmh WSW 13.7 mph22.0 kmh 30.10 in1019.3 mb 0.00 in0.0 mm 0.00 in0.0 mm 0.05 in1.3 mm
12:00 PM 39.5°F4.2°C 35.9°F2.2°C 87% 7.0 mph NNW11.3 kmh NNW 13.7 mph22.0 kmh 30.10 in1019.3 mb 0.00 in0.0 mm 0.00 in0.0 mm 0.05 in1.3 mm
11:55 AM 39.5°F4.2°C 35.9°F2.2°C 87% 6.2 mph NW10.0 kmh NW 10.9 mph17.5 kmh 30.10 in1019.3 mb 0.00 in0.0 mm 0.00 in0.0 mm 0.05 in1.3 mm
11:50 AM 39.3°F4.1°C 35.8°F2.1°C 87% 4.6 mph W7.4 kmh W 11.2 mph18.0 kmh 30.10 in1019.3 mb 0.00 in0.0 mm 0.00 in0.0 mm 0.05 in1.3 mm
11:45 AM 39.3°F4.1°C 35.9°F2.2°C 87% 3.0 mph W4.8 kmh W 7.7 mph12.4 kmh 30.10 in1019.3 mb 0.00 in0.0 mm 0.00 in0.0 mm 0.05 in1.3 mm
11:40 AM 39.3°F4.1°C 35.8°F2.1°C 87% 3.5 mph W5.6 kmh W 7.0 mph11.3 kmh 30.10 in1019.3 mb 0.00 in0.0 mm 0.00 in0.0 mm 0.05 in1.3 mm
11:35 AM 39.4°F4.1°C 35.8°F2.1°C 87% 4.2 mph W6.8 kmh W 7.0 mph11.3 kmh 30.10 in1019.3 mb 0.00 in0.0 mm 0.00 in0.0 mm 0.05 in1.3 mm
11:30 AM 39.3°F4.1°C 35.8°F2.1°C 87% 4.5 mph SW7.2 kmh SW 7.4 mph11.9 kmh 30.10 in1019.3 mb 0.00 in0.0 mm 0.00 in0.0 mm 0.05 in1.3 mm
11:25 AM 39.2°F4.0°C 35.6°F2.0°C 87% 4.5 mph W7.2 kmh W 5.4 mph8.7 kmh 30.10 in1019.3 mb 0.00 in0.0 mm 0.00 in0.0 mm 0.05 in1.3 mm
11:20 AM 39.0°F3.9°C 35.6°F2.0°C 87% 4.6 mph NW7.4 kmh NW 6.5 mph10.5 kmh 30.10 in1019.3 mb 0.00 in0.0 mm 0.00 in0.0 mm 0.05 in1.3 mm
11:15 AM 38.9°F3.8°C 35.7°F2.1°C 88% 4.5 mph WSW7.2 kmh WSW 4.7 mph7.6 kmh 30.10 in1019.3 mb 0.00 in0.0 mm 0.00 in0.0 mm 0.05 in1.3 mm
11:10 AM 38.9°F3.8°C 35.6°F2.0°C 88% 4.7 mph NW7.6 kmh NW 7.5 mph12.1 kmh 30.10 in1019.3 mb 0.00 in0.0 mm 0.00 in0.0 mm 0.05 in1.3 mm
11:05 AM 38.8°F3.8°C 35.5°F1.9°C 88% 4.5 mph SW7.2 kmh SW 12.6 mph20.3 kmh 30.10 in1019.3 mb 0.00 in0.0 mm 0.00 in0.0 mm 0.05 in1.3 mm
11:00 AM 38.6°F3.7°C 35.4°F1.9°C 88% 5.2 mph SW8.4 kmh SW 8.9 mph14.3 kmh 30.10 in1019.3 mb 0.00 in0.0 mm 0.00 in0.0 mm 0.05 in1.3 mm
10:55 AM 38.4°F3.6°C 35.3°F1.8°C 88% 5.9 mph WNW9.5 kmh WNW 10.5 mph16.9 kmh 30.10 in1019.3 mb 0.00 in0.0 mm 0.00 in0.0 mm 0.05 in1.3 mm
10:50 AM 38.3°F3.5°C 35.4°F1.9°C 89% 5.5 mph W8.9 kmh W 10.5 mph16.9 kmh 30.10 in1019.3 mb 0.00 in0.0 mm 0.00 in0.0 mm 0.05 in1.3 mm
10:45 AM 38.2°F3.4°C 35.2°F1.8°C 89% 4.8 mph WSW7.7 kmh WSW 8.9 mph14.3 kmh 30.10 in1019.3 mb 0.00 in0.0 mm 0.00 in0.0 mm 0.05 in1.3 mm
10:40 AM 38.0°F3.3°C 35.0°F1.7°C 89% 4.5 mph WNW7.2 kmh WNW 10.5 mph16.9 kmh 30.10 in1019.3 mb 0.00 in0.0 mm 0.00 in0.0 mm 0.05 in1.3 mm
10:35 AM 37.7°F3.2°C 34.8°F1.6°C 89% 4.2 mph SW6.8 kmh SW 10.5 mph16.9 kmh 30.10 in1019.3 mb 0.00 in0.0 mm 0.00 in0.0 mm 0.05 in1.3 mm
10:30 AM 37.7°F3.2°C 34.9°F1.6°C 89% 4.1 mph W6.6 kmh W 11.9 mph19.2 kmh 30.10 in1019.3 mb 0.00 in0.0 mm 0.00 in0.0 mm 0.05 in1.3 mm
10:25 AM 37.6°F3.1°C 34.9°F1.6°C 90% 4.3 mph NW6.9 kmh NW 11.9 mph19.2 kmh 30.10 in1019.3 mb 0.00 in0.0 mm 0.00 in0.0 mm 0.05 in1.3 mm
10:20 AM 37.5°F3.1°C 34.9°F1.6°C 90% 4.4 mph WNW7.1 kmh WNW 7.0 mph11.3 kmh 30.10 in1019.3 mb 0.00 in0.0 mm 0.00 in0.0 mm 0.05 in1.3 mm
10:15 AM 37.5°F3.1°C 34.9°F1.6°C 90% 4.3 mph W6.9 kmh W 9.3 mph15.0 kmh 30.10 in1019.3 mb 0.00 in0.0 mm 0.00 in0.0 mm 0.05 in1.3 mm
10:10 AM 37.5°F3.1°C 34.8°F1.6°C 90% 4.4 mph WSW7.1 kmh WSW 6.0 mph9.7 kmh 30.09 in1019.0 mb 0.00 in0.0 mm 0.00 in0.0 mm 0.05 in1.3 mm
10:05 AM 37.2°F2.9°C 34.4°F1.3°C 89% 4.2 mph W6.8 kmh W 6.6 mph10.6 kmh 30.08 in1018.6 mb 0.00 in0.0 mm 0.00 in0.0 mm 0.05 in1.3 mm
10:00 AM 37.2°F2.9°C 34.2°F1.2°C 89% 3.6 mph SSE5.8 kmh SSE 6.5 mph10.5 kmh 30.08 in1018.6 mb 0.03 in0.8 mm 0.00 in0.0 mm 0.05 in1.3 mm
09:55 AM 37.2°F2.9°C 34.2°F1.2°C 89% 3.1 mph W5.0 kmh W 6.3 mph10.1 kmh 30.08 in1018.6 mb 0.03 in0.8 mm 0.00 in0.0 mm 0.05 in1.3 mm
09:50 AM 37.2°F2.9°C 34.2°F1.2°C 89% 2.9 mph S4.7 kmh S 4.5 mph7.2 kmh 30.07 in1018.3 mb 0.03 in0.8 mm 0.00 in0.0 mm 0.05 in1.3 mm
09:45 AM 37.2°F2.9°C 34.2°F1.2°C 89% 2.9 mph WSW4.7 kmh WSW 5.8 mph9.3 kmh 30.07 in1018.3 mb 0.03 in0.8 mm 0.00 in0.0 mm 0.05 in1.3 mm
09:40 AM 37.0°F2.8°C 34.1°F1.2°C 89% 2.9 mph SW4.7 kmh SW 5.8 mph9.3 kmh 30.07 in1018.3 mb 0.03 in0.8 mm 0.00 in0.0 mm 0.05 in1.3 mm
09:35 AM 37.2°F2.9°C 34.2°F1.2°C 89% 3.4 mph NW5.5 kmh NW 5.6 mph9.0 kmh 30.07 in1018.3 mb 0.05 in1.3 mm 0.00 in0.0 mm 0.05 in1.3 mm
09:30 AM 37.2°F2.9°C 34.2°F1.2°C 89% 3.8 mph W6.1 kmh W 11.7 mph18.8 kmh 30.05 in1017.6 mb 0.05 in1.3 mm 0.00 in0.0 mm 0.05 in1.3 mm
09:25 AM 37.3°F2.9°C 34.3°F1.3°C 89% 3.2 mph W5.1 kmh W 5.8 mph9.3 kmh 30.05 in1017.6 mb 0.05 in1.3 mm 0.00 in0.0 mm 0.05 in1.3 mm
09:20 AM 37.3°F2.9°C 34.3°F1.3°C 89% 2.4 mph WNW3.9 kmh WNW 8.0 mph12.9 kmh 30.05 in1017.6 mb 0.05 in1.3 mm 0.00 in0.0 mm 0.05 in1.3 mm
09:15 AM 37.4°F3.0°C 34.4°F1.3°C 89% 2.3 mph WNW3.7 kmh WNW 5.8 mph9.3 kmh 30.05 in1017.6 mb 0.05 in1.3 mm 0.00 in0.0 mm 0.05 in1.3 mm
09:10 AM 37.4°F3.0°C 34.5°F1.4°C 89% 2.6 mph SW4.2 kmh SW 5.8 mph9.3 kmh 30.06 in1017.9 mb 0.05 in1.3 mm 0.00 in0.0 mm 0.05 in1.3 mm
09:05 AM 37.5°F3.1°C 34.6°F1.4°C 89% 3.3 mph WSW5.3 kmh WSW 3.7 mph6.0 kmh 30.06 in1017.9 mb 0.05 in1.3 mm 0.24 in6.1 mm 0.05 in1.3 mm
09:00 AM 37.5°F3.1°C 34.6°F1.4°C 89% 4.3 mph SW6.9 kmh SW 6.0 mph9.7 kmh 30.06 in1017.9 mb 0.03 in0.8 mm 0.00 in0.0 mm 0.03 in0.8 mm
08:55 AM 37.4°F3.0°C 34.2°F1.2°C 88% 5.0 mph WSW8.0 kmh WSW 9.6 mph15.4 kmh 30.06 in1017.9 mb 0.03 in0.8 mm 0.00 in0.0 mm 0.03 in0.8 mm
08:50 AM 37.4°F3.0°C 34.1°F1.2°C 88% 4.7 mph SW7.6 kmh SW 6.8 mph10.9 kmh 30.06 in1017.9 mb 0.03 in0.8 mm 0.00 in0.0 mm 0.03 in0.8 mm
08:45 AM 37.2°F2.9°C 34.0°F1.1°C 88% 4.2 mph WSW6.8 kmh WSW 6.0 mph9.7 kmh 30.06 in1017.9 mb 0.03 in0.8 mm 0.00 in0.0 mm 0.03 in0.8 mm
08:40 AM 37.2°F2.9°C 34.0°F1.1°C 88% 3.2 mph WSW5.1 kmh WSW 9.5 mph15.3 kmh 30.06 in1017.9 mb 0.03 in0.8 mm 0.36 in9.1 mm 0.03 in0.8 mm
08:35 AM 37.2°F2.9°C 33.8°F1.0°C 87% 2.7 mph NW4.3 kmh NW 9.5 mph15.3 kmh 30.06 in1017.9 mb 0.00 in0.0 mm 0.00 in0.0 mm 0.00 in0.0 mm
08:30 AM 37.2°F2.9°C 33.7°F0.9°C 87% 3.2 mph W5.1 kmh W 4.0 mph6.4 kmh 30.05 in1017.6 mb 0.00 in0.0 mm 0.00 in0.0 mm 0.00 in0.0 mm
08:25 AM 37.0°F2.8°C 33.5°F0.8°C 87% 3.8 mph WNW6.1 kmh WNW 6.8 mph10.9 kmh 30.05 in1017.6 mb 0.00 in0.0 mm 0.00 in0.0 mm 0.00 in0.0 mm
08:20 AM 37.0°F2.8°C 33.5°F0.8°C 87% 4.4 mph NW7.1 kmh NW 6.5 mph10.5 kmh 30.05 in1017.6 mb 0.00 in0.0 mm 0.00 in0.0 mm 0.00 in0.0 mm
08:15 AM 37.2°F2.9°C 33.7°F0.9°C 87% 4.8 mph W7.7 kmh W 6.6 mph10.6 kmh 30.05 in1017.6 mb 0.00 in0.0 mm 0.00 in0.0 mm 0.00 in0.0 mm
08:10 AM 37.2°F2.9°C 33.7°F0.9°C 87% 5.2 mph SW8.4 kmh SW 15.0 mph24.1 kmh 30.04 in1017.3 mb 0.00 in0.0 mm 0.00 in0.0 mm 0.00 in0.0 mm
08:05 AM 37.2°F2.9°C 33.7°F0.9°C 87% 5.4 mph NW8.7 kmh NW 15.0 mph24.1 kmh 30.04 in1017.3 mb 0.00 in0.0 mm 0.00 in0.0 mm 0.00 in0.0 mm
08:00 AM 37.3°F2.9°C 33.8°F1.0°C 87% 5.2 mph W8.4 kmh W 11.4 mph18.3 kmh 30.04 in1017.3 mb 0.00 in0.0 mm 0.00 in0.0 mm 0.00 in0.0 mm
07:55 AM 37.4°F3.0°C 33.8°F1.0°C 87% 4.9 mph WSW7.9 kmh WSW 6.6 mph10.6 kmh 30.04 in1017.3 mb 0.00 in0.0 mm 0.00 in0.0 mm 0.00 in0.0 mm
07:50 AM 37.4°F3.0°C 33.8°F1.0°C 87% 4.7 mph NW7.6 kmh NW 11.6 mph18.7 kmh 30.03 in1016.9 mb 0.00 in0.0 mm 0.00 in0.0 mm 0.00 in0.0 mm
07:45 AM 37.4°F3.0°C 33.8°F1.0°C 87% 4.9 mph WSW7.9 kmh WSW 8.2 mph13.2 kmh 30.03 in1016.9 mb 0.00 in0.0 mm 0.00 in0.0 mm 0.00 in0.0 mm
07:40 AM 37.3°F2.9°C 33.8°F1.0°C 87% 4.8 mph WSW7.7 kmh WSW 13.1 mph21.1 kmh 30.03 in1016.9 mb 0.00 in0.0 mm 0.00 in0.0 mm 0.00 in0.0 mm
07:35 AM 37.2°F2.9°C 33.7°F0.9°C 87% 4.4 mph WNW7.1 kmh WNW 13.1 mph21.1 kmh 30.03 in1016.9 mb 0.00 in0.0 mm 0.00 in0.0 mm 0.00 in0.0 mm
07:30 AM 37.0°F2.8°C 33.5°F0.8°C 87% 3.7 mph W6.0 kmh W 10.5 mph16.9 kmh 30.04 in1017.3 mb 0.00 in0.0 mm 0.00 in0.0 mm 0.00 in0.0 mm
07:25 AM 37.1°F2.8°C 33.6°F0.9°C 87% 3.3 mph SSE5.3 kmh SSE 10.5 mph16.9 kmh 30.04 in1017.3 mb 0.00 in0.0 mm 0.00 in0.0 mm 0.00 in0.0 mm
07:20 AM 37.2°F2.9°C 33.7°F0.9°C 87% 3.8 mph N6.1 kmh N 8.0 mph12.9 kmh 30.04 in1017.3 mb 0.00 in0.0 mm 0.00 in0.0 mm 0.00 in0.0 mm
07:15 AM 37.1°F2.8°C 33.6°F0.9°C 87% 4.4 mph SW7.1 kmh SW 7.0 mph11.3 kmh 30.04 in1017.3 mb 0.00 in0.0 mm 0.00 in0.0 mm 0.00 in0.0 mm
07:10 AM 37.2°F2.9°C 33.7°F0.9°C 87% 4.4 mph WSW7.1 kmh WSW 8.4 mph13.5 kmh 30.03 in1016.9 mb 0.00 in0.0 mm 0.00 in0.0 mm 0.00 in0.0 mm
07:05 AM 37.2°F2.9°C 33.7°F0.9°C 87% 4.4 mph NW7.1 kmh NW 6.6 mph10.6 kmh 30.03 in1016.9 mb 0.00 in0.0 mm 0.00 in0.0 mm 0.00 in0.0 mm
07:00 AM 37.2°F2.9°C 33.7°F0.9°C 87% 3.8 mph W6.1 kmh W 6.6 mph10.6 kmh 30.03 in1016.9 mb 0.00 in0.0 mm 0.00 in0.0 mm 0.00 in0.0 mm
06:55 AM 37.3°F2.9°C 33.8°F1.0°C 87% 3.4 mph W5.5 kmh W 5.8 mph9.3 kmh 30.03 in1016.9 mb 0.00 in0.0 mm 0.00 in0.0 mm 0.00 in0.0 mm
06:50 AM 37.4°F3.0°C 33.7°F0.9°C 87% 3.3 mph WNW5.3 kmh WNW 5.8 mph9.3 kmh 30.02 in1016.6 mb 0.00 in0.0 mm 0.00 in0.0 mm 0.00 in0.0 mm
06:45 AM 37.5°F3.1°C 33.7°F0.9°C 86% 3.5 mph WNW5.6 kmh WNW 8.8 mph14.2 kmh 30.02 in1016.6 mb 0.00 in0.0 mm 0.00 in0.0 mm 0.00 in0.0 mm
06:40 AM 37.5°F3.1°C 33.7°F0.9°C 86% 4.2 mph SSW6.8 kmh SSW 5.3 mph8.5 kmh 30.02 in1016.6 mb 0.00 in0.0 mm 0.00 in0.0 mm 0.00 in0.0 mm
06:35 AM 37.7°F3.2°C 33.9°F1.1°C 86% 4.9 mph W7.9 kmh W 6.5 mph10.5 kmh 30.02 in1016.6 mb 0.00 in0.0 mm 0.00 in0.0 mm 0.00 in0.0 mm
06:30 AM 37.8°F3.2°C 34.0°F1.1°C 86% 5.4 mph WSW8.7 kmh WSW 6.5 mph10.5 kmh 30.00 in1015.9 mb 0.00 in0.0 mm 0.00 in0.0 mm 0.00 in0.0 mm
06:25 AM 37.9°F3.3°C 33.9°F1.1°C 85% 6.4 mph WSW10.3 kmh WSW 7.7 mph12.4 kmh 30.00 in1015.9 mb 0.00 in0.0 mm 0.00 in0.0 mm 0.00 in0.0 mm
06:20 AM 38.0°F3.3°C 33.9°F1.1°C 85% 7.4 mph WNW11.9 kmh WNW 7.7 mph12.4 kmh 30.00 in1015.9 mb 0.00 in0.0 mm 0.00 in0.0 mm 0.00 in0.0 mm
06:15 AM 38.2°F3.4°C 34.2°F1.2°C 85% 5.3 mph WNW8.5 kmh WNW 7.2 mph11.6 kmh 30.00 in1015.9 mb 0.00 in0.0 mm 0.00 in0.0 mm 0.00 in0.0 mm
06:10 AM 38.2°F3.4°C 34.1°F1.2°C 85% 4.4 mph WNW7.1 kmh WNW 4.4 mph7.1 kmh 29.99 in1015.6 mb 0.00 in0.0 mm 0.00 in0.0 mm 0.00 in0.0 mm
06:05 AM 38.2°F3.4°C 34.1°F1.2°C 85% 4.5 mph NW7.2 kmh NW 10.2 mph16.4 kmh 29.99 in1015.6 mb 0.00 in0.0 mm 0.00 in0.0 mm 0.00 in0.0 mm
06:00 AM 38.2°F3.4°C 34.1°F1.2°C 85% 5.0 mph SW8.0 kmh SW 10.2 mph16.4 kmh 29.99 in1015.6 mb 0.00 in0.0 mm 0.00 in0.0 mm 0.00 in0.0 mm
05:55 AM 38.2°F3.4°C 33.9°F1.1°C 84% 5.2 mph NW8.4 kmh NW 7.0 mph11.3 kmh 29.99 in1015.6 mb 0.00 in0.0 mm 0.00 in0.0 mm 0.00 in0.0 mm
05:50 AM 38.2°F3.4°C 33.8°F1.0°C 84% 5.3 mph WSW8.5 kmh WSW 6.6 mph10.6 kmh 29.99 in1015.6 mb 0.00 in0.0 mm 0.00 in0.0 mm 0.00 in0.0 mm
05:45 AM 38.2°F3.4°C 33.8°F1.0°C 84% 5.0 mph WSW8.0 kmh WSW 8.9 mph14.3 kmh 29.99 in1015.6 mb 0.00 in0.0 mm 0.00 in0.0 mm 0.00 in0.0 mm
05:40 AM 38.2°F3.4°C 33.8°F1.0°C 84% 4.7 mph NW7.6 kmh NW 7.4 mph11.9 kmh 29.99 in1015.6 mb 0.00 in0.0 mm 0.00 in0.0 mm 0.00 in0.0 mm
05:35 AM 38.2°F3.4°C 33.8°F1.0°C 84% 4.1 mph WSW6.6 kmh WSW 7.7 mph12.4 kmh 29.99 in1015.6 mb 0.00 in0.0 mm 0.00 in0.0 mm 0.00 in0.0 mm
05:30 AM 38.2°F3.4°C 33.7°F0.9°C 84% 3.6 mph NW5.8 kmh NW 8.2 mph13.2 kmh 29.99 in1015.6 mb 0.00 in0.0 mm 0.00 in0.0 mm 0.00 in0.0 mm
05:25 AM 38.3°F3.5°C 33.6°F0.9°C 83% 3.3 mph W5.3 kmh W 3.7 mph6.0 kmh 29.99 in1015.6 mb 0.00 in0.0 mm 0.00 in0.0 mm 0.00 in0.0 mm
05:20 AM 38.5°F3.6°C 33.8°F1.0°C 83% 4.3 mph SW6.9 kmh SW 11.4 mph18.3 kmh 29.99 in1015.6 mb 0.00 in0.0 mm 0.00 in0.0 mm 0.00 in0.0 mm
05:15 AM 38.6°F3.7°C 33.9°F1.1°C 83% 5.3 mph WNW8.5 kmh WNW 5.8 mph9.3 kmh 29.99 in1015.6 mb 0.00 in0.0 mm 0.00 in0.0 mm 0.00 in0.0 mm
05:10 AM 38.7°F3.7°C 34.0°F1.1°C 83% 4.7 mph W7.6 kmh W 12.3 mph19.8 kmh 29.99 in1015.6 mb 0.00 in0.0 mm 0.00 in0.0 mm 0.00 in0.0 mm
05:05 AM 38.8°F3.8°C 34.1°F1.2°C 83% 4.7 mph NW7.6 kmh NW 6.5 mph10.5 kmh 29.99 in1015.6 mb 0.00 in0.0 mm 0.00 in0.0 mm 0.00 in0.0 mm
05:00 AM 38.9°F3.8°C 34.2°F1.2°C 83% 6.2 mph NE10.0 kmh NE 6.8 mph10.9 kmh 29.99 in1015.6 mb 0.00 in0.0 mm 0.00 in0.0 mm 0.00 in0.0 mm
04:55 AM 38.9°F3.8°C 34.2°F1.2°C 83% 6.5 mph WNW10.5 kmh WNW 14.3 mph23.0 kmh 29.99 in1015.6 mb 0.00 in0.0 mm 0.00 in0.0 mm 0.00 in0.0 mm
04:50 AM 38.9°F3.8°C 34.2°F1.2°C 83% 6.2 mph NW10.0 kmh NW 14.3 mph23.0 kmh 29.98 in1015.2 mb 0.00 in0.0 mm 0.00 in0.0 mm 0.00 in0.0 mm
04:45 AM 38.9°F3.8°C 34.5°F1.4°C 84% 6.0 mph SW9.7 kmh SW 10.3 mph16.6 kmh 29.98 in1015.2 mb 0.00 in0.0 mm 0.00 in0.0 mm 0.00 in0.0 mm
04:40 AM 38.7°F3.7°C 34.3°F1.3°C 84% 5.2 mph WNW8.4 kmh WNW 17.0 mph27.4 kmh 29.98 in1015.2 mb 0.00 in0.0 mm 0.00 in0.0 mm 0.00 in0.0 mm
04:35 AM 38.5°F3.6°C 34.1°F1.2°C 84% 3.7 mph W6.0 kmh W 5.1 mph8.2 kmh 29.98 in1015.2 mb 0.00 in0.0 mm 0.00 in0.0 mm 0.00 in0.0 mm
04:30 AM 38.4°F3.6°C 34.0°F1.1°C 84% 4.0 mph W6.4 kmh W 6.8 mph10.9 kmh 29.98 in1015.2 mb 0.00 in0.0 mm 0.00 in0.0 mm 0.00 in0.0 mm
04:25 AM 38.6°F3.7°C 34.2°F1.2°C 84% 4.3 mph NE6.9 kmh NE 9.1 mph14.6 kmh 29.98 in1015.2 mb 0.00 in0.0 mm 0.00 in0.0 mm 0.00 in0.0 mm
04:20 AM 38.6°F3.7°C 34.2°F1.2°C 84% 4.5 mph NNW7.2 kmh NNW 9.1 mph14.6 kmh 29.98 in1015.2 mb 0.00 in0.0 mm 0.00 in0.0 mm 0.00 in0.0 mm
04:15 AM 38.6°F3.7°C 34.2°F1.2°C 84% 5.6 mph WSW9.0 kmh WSW 6.1 mph9.8 kmh 29.98 in1015.2 mb 0.00 in0.0 mm 0.00 in0.0 mm 0.00 in0.0 mm
04:10 AM 38.8°F3.8°C 34.4°F1.3°C 84% 6.4 mph NW10.3 kmh NW 12.3 mph19.8 kmh 29.97 in1014.9 mb 0.00 in0.0 mm 0.00 in0.0 mm 0.00 in0.0 mm
04:05 AM 38.8°F3.8°C 34.4°F1.3°C 84% 6.5 mph NW10.5 kmh NW 10.2 mph16.4 kmh 29.97 in1014.9 mb 0.00 in0.0 mm 0.00 in0.0 mm 0.00 in0.0 mm
04:00 AM 38.9°F3.8°C 34.5°F1.4°C 84% 6.4 mph WNW10.3 kmh WNW 10.2 mph16.4 kmh 29.97 in1014.9 mb 0.00 in0.0 mm 0.00 in0.0 mm 0.00 in0.0 mm
03:55 AM 38.9°F3.8°C 34.2°F1.2°C 83% 6.7 mph W10.8 kmh W 6.8 mph10.9 kmh 29.97 in1014.9 mb 0.00 in0.0 mm 0.00 in0.0 mm 0.00 in0.0 mm
03:50 AM 39.1°F3.9°C 34.4°F1.3°C 83% 7.5 mph NW12.1 kmh NW 9.6 mph15.4 kmh 29.97 in1014.9 mb 0.00 in0.0 mm 0.00 in0.0 mm 0.00 in0.0 mm
03:45 AM 39.1°F3.9°C 34.4°F1.3°C 83% 8.1 mph W13.0 kmh W 12.4 mph20.0 kmh 29.97 in1014.9 mb 0.00 in0.0 mm 0.00 in0.0 mm 0.00 in0.0 mm
03:40 AM 39.1°F3.9°C 34.4°F1.3°C 83% 7.7 mph WNW12.4 kmh WNW 15.2 mph24.5 kmh 29.97 in1014.9 mb 0.00 in0.0 mm 0.00 in0.0 mm 0.00 in0.0 mm
03:35 AM 39.0°F3.9°C 34.5°F1.4°C 84% 6.2 mph NW10.0 kmh NW 12.3 mph19.8 kmh 29.97 in1014.9 mb 0.00 in0.0 mm 0.00 in0.0 mm 0.00 in0.0 mm
03:30 AM 38.9°F3.8°C 34.5°F1.4°C 84% 5.1 mph SW8.2 kmh SW 12.3 mph19.8 kmh 29.96 in1014.6 mb 0.00 in0.0 mm 0.00 in0.0 mm 0.00 in0.0 mm
03:25 AM 38.9°F3.8°C 34.5°F1.4°C 84% 5.2 mph WSW8.4 kmh WSW 9.3 mph15.0 kmh 29.95 in1014.2 mb 0.00 in0.0 mm 0.00 in0.0 mm 0.00 in0.0 mm
03:20 AM 38.9°F3.8°C 34.5°F1.4°C 84% 5.0 mph SW8.0 kmh SW 9.5 mph15.3 kmh 29.95 in1014.2 mb 0.00 in0.0 mm 0.00 in0.0 mm 0.00 in0.0 mm
03:15 AM 38.9°F3.8°C 34.3°F1.3°C 83% 5.1 mph N8.2 kmh N 8.9 mph14.3 kmh 29.95 in1014.2 mb 0.00 in0.0 mm 0.00 in0.0 mm 0.00 in0.0 mm
03:10 AM 38.9°F3.8°C 34.2°F1.2°C 83% 5.3 mph NNW8.5 kmh NNW 8.9 mph14.3 kmh 29.95 in1014.2 mb 0.00 in0.0 mm 0.00 in0.0 mm 0.00 in0.0 mm
03:05 AM 39.1°F3.9°C 34.3°F1.3°C 83% 5.3 mph NW8.5 kmh NW 8.9 mph14.3 kmh 29.95 in1014.2 mb 0.00 in0.0 mm 0.00 in0.0 mm 0.00 in0.0 mm
03:00 AM 39.1°F3.9°C 34.4°F1.3°C 83% 5.3 mph WSW8.5 kmh WSW 15.9 mph25.6 kmh 29.95 in1014.2 mb 0.00 in0.0 mm 0.00 in0.0 mm 0.00 in0.0 mm
02:55 AM 39.2°F4.0°C 34.4°F1.3°C 83% 4.9 mph NW7.9 kmh NW 15.9 mph25.6 kmh 29.95 in1014.2 mb 0.00 in0.0 mm 0.00 in0.0 mm 0.00 in0.0 mm
02:50 AM 39.3°F4.1°C 34.6°F1.4°C 83% 4.7 mph WNW7.6 kmh WNW 9.1 mph14.6 kmh 29.95 in1014.2 mb 0.00 in0.0 mm 0.00 in0.0 mm 0.00 in0.0 mm
02:45 AM 39.3°F4.1°C 34.6°F1.4°C 83% 5.4 mph SW8.7 kmh SW 9.3 mph15.0 kmh 29.95 in1014.2 mb 0.00 in0.0 mm 0.00 in0.0 mm 0.00 in0.0 mm
02:40 AM 39.5°F4.2°C 34.7°F1.5°C 83% 5.3 mph NW8.5 kmh NW 13.0 mph20.9 kmh 29.95 in1014.2 mb 0.00 in0.0 mm 0.00 in0.0 mm 0.00 in0.0 mm
02:35 AM 39.5°F4.2°C 34.7°F1.5°C 83% 4.8 mph NW7.7 kmh NW 8.0 mph12.9 kmh 29.95 in1014.2 mb 0.00 in0.0 mm 0.00 in0.0 mm 0.00 in0.0 mm
02:30 AM 39.5°F4.2°C 34.8°F1.6°C 83% 4.8 mph SW7.7 kmh SW 6.6 mph10.6 kmh 29.94 in1013.9 mb 0.00 in0.0 mm 0.00 in0.0 mm 0.00 in0.0 mm
02:25 AM 39.7°F4.3°C 34.9°F1.6°C 83% 5.5 mph W8.9 kmh W 8.8 mph14.2 kmh 29.94 in1013.9 mb 0.00 in0.0 mm 0.00 in0.0 mm 0.00 in0.0 mm
02:20 AM 39.7°F4.3°C 34.9°F1.6°C 83% 6.4 mph W10.3 kmh W 8.8 mph14.2 kmh 29.94 in1013.9 mb 0.00 in0.0 mm 0.00 in0.0 mm 0.00 in0.0 mm
02:15 AM 39.7°F4.3°C 34.9°F1.6°C 83% 6.5 mph NW10.5 kmh NW 12.6 mph20.3 kmh 29.94 in1013.9 mb 0.00 in0.0 mm 0.00 in0.0 mm 0.00 in0.0 mm
02:10 AM 39.7°F4.3°C 34.9°F1.6°C 83% 6.2 mph WNW10.0 kmh WNW 12.6 mph20.3 kmh 29.93 in1013.5 mb 0.00 in0.0 mm 0.00 in0.0 mm 0.00 in0.0 mm
02:05 AM 39.7°F4.3°C 35.0°F1.7°C 83% 6.8 mph W10.9 kmh W 11.6 mph18.7 kmh 29.93 in1013.5 mb 0.00 in0.0 mm 0.00 in0.0 mm 0.00 in0.0 mm
02:00 AM 39.8°F4.3°C 35.1°F1.7°C 83% 7.0 mph NW11.3 kmh NW 11.6 mph18.7 kmh 29.93 in1013.5 mb 0.00 in0.0 mm 0.00 in0.0 mm 0.00 in0.0 mm
01:55 AM 39.9°F4.4°C 35.2°F1.8°C 83% 6.8 mph WNW10.9 kmh WNW 16.4 mph26.4 kmh 29.93 in1013.5 mb 0.00 in0.0 mm 0.00 in0.0 mm 0.00 in0.0 mm
01:50 AM 40.0°F4.4°C 35.3°F1.8°C 83% 6.3 mph WSW10.1 kmh WSW 13.1 mph21.1 kmh 29.93 in1013.5 mb 0.00 in0.0 mm 0.00 in0.0 mm 0.00 in0.0 mm
01:45 AM 40.0°F4.4°C 35.2°F1.8°C 83% 6.3 mph NW10.1 kmh NW 14.0 mph22.5 kmh 29.93 in1013.5 mb 0.00 in0.0 mm 0.00 in0.0 mm 0.00 in0.0 mm
01:40 AM 39.8°F4.3°C 35.1°F1.7°C 83% 5.9 mph NW9.5 kmh NW 14.0 mph22.5 kmh 29.93 in1013.5 mb 0.00 in0.0 mm 0.00 in0.0 mm 0.00 in0.0 mm
01:35 AM 39.8°F4.3°C 35.1°F1.7°C 83% 5.8 mph WSW9.3 kmh WSW 13.8 mph22.2 kmh 29.93 in1013.5 mb 0.00 in0.0 mm 0.00 in0.0 mm 0.00 in0.0 mm
01:30 AM 39.7°F4.3°C 35.0°F1.7°C 83% 6.6 mph NE10.6 kmh NE 8.9 mph14.3 kmh 29.91 in1012.9 mb 0.00 in0.0 mm 0.00 in0.0 mm 0.00 in0.0 mm
01:25 AM 39.8°F4.3°C 35.1°F1.7°C 83% 6.8 mph WSW10.9 kmh WSW 14.7 mph23.7 kmh 29.91 in1012.9 mb 0.00 in0.0 mm 0.00 in0.0 mm 0.00 in0.0 mm
01:20 AM 39.8°F4.3°C 35.0°F1.7°C 83% 6.4 mph NNE10.3 kmh NNE 14.7 mph23.7 kmh 29.91 in1012.9 mb 0.00 in0.0 mm 0.00 in0.0 mm 0.00 in0.0 mm
01:15 AM 39.8°F4.3°C 35.1°F1.7°C 83% 6.3 mph N10.1 kmh N 12.1 mph19.5 kmh 29.91 in1012.9 mb 0.00 in0.0 mm 0.00 in0.0 mm 0.00 in0.0 mm
01:10 AM 39.9°F4.4°C 35.2°F1.8°C 83% 6.4 mph NW10.3 kmh NW 11.4 mph18.3 kmh 29.91 in1012.9 mb 0.00 in0.0 mm 0.00 in0.0 mm 0.00 in0.0 mm
01:05 AM 40.0°F4.4°C 35.2°F1.8°C 83% 5.9 mph WNW9.5 kmh WNW 11.4 mph18.3 kmh 29.91 in1012.9 mb 0.00 in0.0 mm 0.00 in0.0 mm 0.00 in0.0 mm
01:00 AM 40.0°F4.4°C 35.0°F1.7°C 82% 6.2 mph W10.0 kmh W 13.5 mph21.7 kmh 29.91 in1012.9 mb 0.00 in0.0 mm 0.00 in0.0 mm 0.00 in0.0 mm
12:55 AM 40.1°F4.5°C 35.0°F1.7°C 82% 6.8 mph N10.9 kmh N 11.4 mph18.3 kmh 29.91 in1012.9 mb 0.00 in0.0 mm 0.00 in0.0 mm 0.00 in0.0 mm
12:50 AM 40.2°F4.6°C 35.1°F1.7°C 82% 7.0 mph NNE11.3 kmh NNE 20.1 mph32.3 kmh 29.90 in1012.5 mb 0.00 in0.0 mm 0.00 in0.0 mm 0.00 in0.0 mm
12:45 AM 40.2°F4.6°C 35.1°F1.7°C 82% 7.1 mph W11.4 kmh W 7.9 mph12.7 kmh 29.90 in1012.5 mb 0.00 in0.0 mm 0.00 in0.0 mm 0.00 in0.0 mm
12:40 AM 40.2°F4.6°C 35.1°F1.7°C 82% 7.5 mph SW12.1 kmh SW 11.0 mph17.7 kmh 29.90 in1012.5 mb 0.00 in0.0 mm 0.00 in0.0 mm 0.00 in0.0 mm
12:35 AM 40.2°F4.6°C 35.3°F1.8°C 83% 6.9 mph WNW11.1 kmh WNW 15.6 mph25.1 kmh 29.90 in1012.5 mb 0.00 in0.0 mm 0.00 in0.0 mm 0.00 in0.0 mm
12:30 AM 40.2°F4.6°C 35.4°F1.9°C 83% 5.7 mph NW9.2 kmh NW 15.6 mph25.1 kmh 29.90 in1012.5 mb 0.00 in0.0 mm 0.00 in0.0 mm 0.00 in0.0 mm
12:25 AM 40.2°F4.6°C 35.3°F1.8°C 82% 5.8 mph SW9.3 kmh SW 10.9 mph17.5 kmh 29.89 in1012.2 mb 0.00 in0.0 mm 0.00 in0.0 mm 0.00 in0.0 mm
12:20 AM 40.4°F4.7°C 35.3°F1.8°C 82% 6.7 mph SW10.8 kmh SW 8.4 mph13.5 kmh 29.89 in1012.2 mb 0.00 in0.0 mm 0.00 in0.0 mm 0.00 in0.0 mm
12:15 AM 40.5°F4.7°C 35.4°F1.9°C 82% 7.1 mph WNW11.4 kmh WNW 12.4 mph20.0 kmh 29.89 in1012.2 mb 0.00 in0.0 mm 0.00 in0.0 mm 0.00 in0.0 mm
12:10 AM 40.5°F4.7°C 35.5°F1.9°C 82% 7.2 mph WNW11.6 kmh WNW 12.4 mph20.0 kmh 29.89 in1012.2 mb 0.00 in0.0 mm 0.00 in0.0 mm 0.00 in0.0 mm
12:05 AM 40.5°F4.7°C 35.6°F2.0°C 82% 6.9 mph NNW11.1 kmh NNW 14.9 mph24.0 kmh 29.89 in1012.2 mb 0.00 in0.0 mm 0.00 in0.0 mm 0.00 in0.0 mm
12:00 AM 40.5°F4.7°C 35.7°F2.1°C 83% 6.3 mph SW10.1 kmh SW 14.9 mph24.0 kmh 29.89 in1012.2 mb 0.00 in0.0 mm 0.00 in0.0 mm 0.00 in0.0 mm